Lethbridge County Airport
CYQL : rendu visible

Aérodrome :











RETROUVEZ-NOUS SUR...

 
LOGIN :

S'inscrire | Disclaimer

   EN    FR    IT 

 









Légende :    VFR   VFR Marginal   IFR   IFR Intensif   IFR Très Intensif
Visi : 
Plafond : 
>= 8 km
>= 3000ft
5 à 8 km
1000 à 3000 ft
1500m à 5 km
500 à 1000 ft
800 à 1500m
200 à 500 ft
< 800m
< 200 ft
Symboles :   Orages  Brouillard  Fortes neiges  Fortes précipitations  Vent > 20 kt







- Altitude de l'aérodrome : 3047 ft
- Code IATA : YQL


CYQL - Lethbridge County

DERNIER METAR :
  • 222100Z 23026G33KT 60SM FEW100 FEW140 BKN300 20/M03 A2991 RMK CU1AC2CI5 CU TR SLP134 DENSITY ALT 4400FT

METARs EXPIRÉS :
  • 222000Z 25019G26KT 60SM FEW100 FEW140 BKN300 21/M04 A2993 RMK CU1AC1CI5 CU TR SLP142 DENSITY ALT 4400FT
  • 221900Z 22021G29KT 60SM BKN300 20/M03 A2996 RMK CI5 SLP152 DENSITY ALT 4300FT

TAF TAF CYQL
Valide du 22 à 18h jusqu'au 23 à 06h UTC


221738Z 2218/2306 26020G30KT P6SM SKC
FM230200 24020G30KT P6SM BKN140 RMK NXT FCST BY 230000Z
FIR CZEG / Amérique du Nord



MET'MAP, la Météo Aéronautique d'un coup d'oeil ! - Copyright ORBIFLY Décembre 2007 - Disclaimer

ORBIFLY MET'MAP TEAM :

Programmation & Développement : Alexandra Zaïnal
Conception & Développement : Baudouin d'Aumeries
Co-Programmation & Développement : Marc-Olivier Méhu
Soutien technique & logistique : Manuel Goepfert

Contact : metmap@orbifly.com




SOURCES & CREDITS :

   NOAA       Earth
Advisory